createdAt,value
2019-03-26T00:02:00.602Z,77.87
2019-03-26T00:04:31.319Z,76.92
2019-03-26T00:07:01.937Z,76.85
2019-03-26T00:09:32.587Z,78.21
2019-03-26T00:12:06.395Z,77.76
2019-03-26T00:14:37.567Z,76.71
2019-03-26T00:17:08.198Z,78.98
2019-03-26T00:19:39.694Z,80.34
2019-03-26T00:22:10.315Z,79.38
2019-03-26T00:24:41.071Z,78.89
2019-03-26T00:27:11.752Z,80.71
2019-03-26T00:29:42.367Z,80.65
2019-03-26T00:32:13.245Z,80.59
2019-03-26T00:34:43.902Z,82.00
2019-03-26T00:37:14.543Z,79.45
2019-03-26T00:39:45.204Z,80.03
2019-03-26T00:42:15.834Z,78.25
2019-03-26T00:44:46.781Z,78.96
2019-03-26T00:47:17.633Z,79.90
2019-03-26T00:49:48.579Z,79.39
2019-03-26T00:52:19.205Z,79.50
2019-03-26T00:54:49.955Z,78.47
2019-03-26T00:57:20.578Z,79.14
2019-03-26T00:59:51.243Z,77.75
2019-03-26T01:02:21.936Z,78.03
2019-03-26T01:04:52.944Z,77.05
2019-03-26T01:07:23.582Z,77.12
2019-03-26T01:09:55.202Z,79.90
2019-03-26T01:12:25.822Z,79.91
2019-03-26T01:14:56.478Z,78.40
2019-03-26T01:17:27.103Z,79.80
2019-03-26T01:19:57.782Z,78.13
2019-03-26T01:22:28.736Z,81.03
2019-03-26T01:24:59.704Z,80.71
2019-03-26T01:27:30.311Z,80.53
2019-03-26T01:30:01.299Z,80.18
2019-03-26T01:32:31.995Z,79.71
2019-03-26T01:35:02.631Z,78.77
2019-03-26T01:37:33.509Z,78.78
2019-03-26T01:40:04.318Z,77.84
2019-03-26T01:42:34.934Z,79.08
2019-03-26T01:45:07.080Z,77.63
2019-03-26T01:47:37.832Z,80.49
2019-03-26T01:50:08.481Z,78.57
2019-03-26T01:52:39.170Z,77.17
2019-03-26T01:55:09.912Z,77.27
2019-03-26T01:57:40.652Z,75.97
2019-03-26T02:00:11.408Z,77.46
2019-03-26T02:02:43.230Z,76.15
2019-03-26T02:05:14.124Z,76.63
2019-03-26T02:07:44.757Z,77.23
2019-03-26T02:10:16.462Z,79.09
2019-03-26T02:12:48.740Z,79.19
2019-03-26T02:15:29.903Z,77.17
2019-03-26T02:18:01.106Z,77.16
2019-03-26T02:20:32.899Z,79.46
2019-03-26T02:23:03.555Z,80.47
2019-03-26T02:25:34.384Z,80.61
2019-03-26T02:28:05.026Z,80.46
2019-03-26T02:30:35.711Z,79.12
2019-03-26T02:33:06.340Z,78.23
2019-03-26T02:35:37.235Z,77.39
2019-03-26T02:38:07.856Z,81.18
2019-03-26T02:40:38.534Z,80.81
2019-03-26T02:43:10.386Z,79.18
2019-03-26T02:45:41.116Z,79.95
2019-03-26T02:48:11.806Z,82.09
2019-03-26T02:50:42.480Z,78.56
2019-03-26T02:53:13.383Z,79.58
2019-03-26T02:55:44.021Z,78.97
2019-03-26T02:58:14.676Z,77.45
2019-03-26T03:00:45.312Z,79.11
2019-03-26T03:03:15.940Z,77.57
2019-03-26T03:05:46.574Z,77.06
2019-03-26T03:08:17.194Z,78.09
2019-03-26T03:10:47.849Z,80.20
2019-03-26T03:13:18.499Z,80.52
2019-03-26T03:15:49.233Z,78.13
2019-03-26T03:18:20.115Z,76.92
2019-03-26T03:20:50.757Z,77.60
2019-03-26T03:23:21.454Z,78.59
2019-03-26T03:25:52.139Z,79.30
2019-03-26T03:28:22.783Z,80.72
2019-03-26T03:30:53.466Z,78.69
2019-03-26T03:33:24.104Z,80.40
2019-03-26T03:35:54.753Z,82.66
2019-03-26T03:38:25.402Z,81.69
2019-03-26T03:40:56.116Z,80.03
2019-03-26T03:43:26.721Z,79.06
2019-03-26T03:45:57.892Z,80.06
2019-03-26T03:48:28.846Z,79.31
2019-03-26T03:51:00.421Z,78.06
2019-03-26T03:53:31.046Z,77.23
2019-03-26T03:56:02.855Z,80.11
2019-03-26T03:58:36.497Z,81.85
2019-03-26T04:01:07.854Z,80.86
2019-03-26T04:03:38.756Z,78.14
2019-03-26T04:06:10.357Z,77.71
2019-03-26T04:08:41.380Z,77.79
2019-03-26T04:11:12.074Z,76.40
2019-03-26T04:13:42.774Z,77.44
2019-03-26T04:16:13.431Z,76.93
2019-03-26T04:18:44.061Z,76.64
2019-03-26T04:21:14.711Z,76.69
2019-03-26T04:23:46.406Z,76.04
2019-03-26T04:26:17.180Z,75.26
2019-03-26T04:28:47.833Z,77.02
2019-03-26T04:31:18.743Z,77.13
2019-03-26T04:33:49.368Z,76.18
2019-03-26T04:36:26.167Z,76.98
2019-03-26T04:38:52.629Z,79.41
2019-03-26T04:41:23.307Z,77.55
2019-03-26T04:43:53.925Z,76.96
2019-03-26T04:46:24.584Z,78.72
2019-03-26T04:48:55.575Z,79.45
2019-03-26T04:51:26.236Z,81.31
2019-03-26T04:53:56.941Z,80.02
2019-03-26T04:56:27.645Z,78.58
2019-03-26T04:59:01.288Z,77.60
2019-03-26T05:01:31.936Z,76.68
2019-03-26T05:04:03.584Z,75.77
2019-03-26T05:06:38.340Z,76.31
2019-03-26T05:09:08.634Z,76.30
2019-03-26T05:11:40.404Z,75.67
2019-03-26T05:14:11.350Z,75.08
2019-03-26T05:16:42.117Z,74.46
2019-03-26T05:19:12.810Z,75.23
2019-03-26T05:21:43.481Z,76.33
2019-03-26T05:24:14.267Z,75.39
2019-03-26T05:26:44.953Z,75.19
2019-03-26T05:29:15.867Z,75.08
2019-03-26T05:31:46.534Z,75.38
2019-03-26T05:34:17.539Z,77.52
2019-03-26T05:36:51.621Z,76.10
2019-03-26T05:39:20.515Z,75.63
2019-03-26T05:41:51.448Z,76.98
2019-03-26T05:44:22.112Z,76.18
2019-03-26T05:46:52.883Z,75.43
2019-03-26T05:49:23.535Z,75.35
2019-03-26T05:51:54.163Z,76.72
2019-03-26T05:54:24.799Z,77.18
2019-03-26T05:56:55.459Z,78.66
2019-03-26T05:59:26.087Z,77.99
2019-03-26T06:01:56.711Z,77.54
2019-03-26T06:04:28.504Z,77.46
2019-03-26T06:07:05.096Z,76.65
2019-03-26T06:09:32.772Z,77.56
2019-03-26T06:12:03.621Z,75.61
2019-03-26T06:14:34.248Z,74.76
2019-03-26T06:17:04.984Z,74.01
2019-03-26T06:19:40.885Z,73.97
2019-03-26T06:22:11.595Z,72.68
2019-03-26T06:24:42.208Z,73.30
2019-03-26T06:27:12.881Z,72.61
2019-03-26T06:29:43.820Z,72.33
2019-03-26T06:32:14.520Z,72.40
2019-03-26T06:34:45.162Z,71.54
2019-03-26T06:37:18.126Z,72.38
2019-03-26T06:39:48.413Z,71.05
2019-03-26T06:42:19.340Z,72.75
2019-03-26T06:44:49.975Z,72.24
2019-03-26T06:47:20.651Z,70.98
2019-03-26T06:49:51.307Z,70.57
2019-03-26T06:52:22.238Z,71.51
2019-03-26T06:54:52.855Z,70.58
2019-03-26T06:57:35.027Z,70.30
2019-03-26T06:59:56.220Z,69.81
2019-03-26T07:02:26.887Z,70.50
2019-03-26T07:04:57.520Z,71.11
2019-03-26T07:07:31.732Z,69.88
2019-03-26T07:10:00.841Z,70.30
2019-03-26T07:12:31.639Z,70.62
2019-03-26T07:15:02.275Z,69.70
2019-03-26T07:17:32.942Z,69.93
2019-03-26T07:20:03.589Z,69.55
2019-03-26T07:22:34.474Z,68.34
2019-03-26T07:25:05.481Z,69.31
2019-03-26T07:27:37.773Z,67.49
2019-03-26T07:30:09.946Z,67.71
2019-03-26T07:32:40.668Z,68.21
2019-03-26T07:35:11.367Z,68.34
2019-03-26T07:37:45.357Z,66.40
2019-03-26T07:40:14.663Z,67.94
2019-03-26T07:42:45.310Z,65.36
2019-03-26T07:45:16.685Z,64.90
2019-03-26T07:47:47.485Z,65.07
2019-03-26T07:50:18.117Z,67.99
2019-03-26T07:52:48.771Z,68.19
2019-03-26T07:55:19.681Z,67.36
2019-03-26T07:57:50.374Z,63.88
2019-03-26T08:00:27.389Z,62.88
2019-03-26T08:02:58.069Z,62.57
2019-03-26T08:05:29.984Z,61.96
2019-03-26T08:08:00.829Z,66.13
2019-03-26T08:10:31.459Z,63.47
2019-03-26T08:13:02.415Z,62.77
2019-03-26T08:15:33.087Z,62.24
2019-03-26T08:18:03.671Z,62.48
2019-03-26T08:20:34.380Z,61.53
2019-03-26T08:23:05.059Z,59.50
2019-03-26T08:25:35.965Z,58.30
2019-03-26T08:28:06.639Z,59.24
2019-03-26T08:30:37.300Z,55.88
2019-03-26T08:33:07.963Z,57.38
2019-03-26T08:35:38.833Z,60.59
2019-03-26T08:38:12.825Z,56.27
2019-03-26T08:40:41.844Z,56.25
2019-03-26T08:43:12.474Z,57.91
2019-03-26T08:45:43.131Z,56.32
2019-03-26T08:48:13.821Z,57.91
2019-03-26T08:50:44.494Z,57.68
2019-03-26T08:53:15.378Z,57.32
2019-03-26T08:55:46.033Z,56.68
2019-03-26T08:58:16.714Z,55.05
2019-03-26T09:00:47.357Z,56.99
2019-03-26T09:03:18.003Z,55.00
2019-03-26T09:05:48.648Z,58.52
2019-03-26T09:08:25.227Z,57.69
2019-03-26T09:10:52.241Z,56.97
2019-03-26T09:13:22.951Z,56.46
2019-03-26T09:15:53.861Z,55.65
2019-03-26T09:18:28.777Z,54.11
2019-03-26T09:20:59.467Z,57.13
2019-03-26T09:23:30.129Z,58.12
2019-03-26T09:26:00.788Z,58.29
2019-03-26T09:28:31.830Z,56.90
2019-03-26T09:31:02.533Z,59.17
2019-03-26T09:33:33.361Z,55.87
2019-03-26T09:36:04.479Z,54.25
2019-03-26T09:38:39.060Z,54.47
2019-03-26T09:41:07.762Z,53.64
2019-03-26T09:43:38.459Z,54.10
2019-03-26T09:46:09.462Z,53.66
2019-03-26T09:48:40.486Z,53.64
2019-03-26T09:51:11.680Z,52.27
2019-03-26T09:53:42.367Z,48.35
2019-03-26T09:56:13.001Z,48.69
2019-03-26T09:58:43.710Z,45.95
2019-03-26T10:01:14.345Z,49.16
2019-03-26T10:03:45.025Z,47.88
2019-03-26T10:06:23.447Z,47.69
2019-03-26T10:08:52.639Z,47.44
2019-03-26T10:11:23.187Z,46.30
2019-03-26T10:13:54.922Z,47.73
2019-03-26T10:16:25.748Z,47.22
2019-03-26T10:18:56.387Z,47.05
2019-03-26T10:21:27.018Z,47.67
2019-03-26T10:23:57.703Z,40.76
2019-03-26T10:26:28.347Z,36.52
2019-03-26T10:28:59.053Z,36.86
2019-03-26T10:31:29.739Z,36.91
2019-03-26T10:34:00.389Z,38.98
2019-03-26T10:36:31.060Z,39.49
2019-03-26T10:39:05.514Z,43.34
2019-03-26T10:41:34.063Z,48.51
2019-03-26T10:44:05.105Z,49.29
2019-03-26T10:46:35.985Z,47.90
2019-03-26T10:49:06.742Z,52.30
2019-03-26T10:51:37.384Z,51.21
2019-03-26T10:54:08.056Z,52.48
2019-03-26T10:56:38.760Z,51.01
2019-03-26T10:59:09.713Z,55.36
2019-03-26T11:01:40.612Z,54.89
2019-03-26T11:04:11.275Z,55.17
2019-03-26T11:06:41.983Z,56.17
2019-03-26T11:09:21.308Z,55.44
2019-03-26T11:11:45.277Z,52.18
2019-03-26T11:14:15.921Z,50.94
2019-03-26T11:16:46.814Z,50.75
2019-03-26T11:19:17.466Z,51.27
2019-03-26T11:21:48.100Z,46.88
2019-03-26T11:24:18.780Z,46.55
2019-03-26T11:26:49.401Z,45.72
2019-03-26T11:29:20.078Z,46.26
2019-03-26T11:31:50.704Z,47.09
2019-03-26T11:34:21.351Z,46.24
2019-03-26T11:36:51.932Z,46.32
2019-03-26T11:39:32.256Z,47.79
2019-03-26T11:41:56.242Z,46.29
2019-03-26T11:44:26.889Z,48.61
2019-03-26T11:46:58.506Z,47.00
2019-03-26T11:49:29.153Z,44.98
2019-03-26T11:51:59.746Z,41.47
2019-03-26T11:54:30.512Z,41.17
2019-03-26T11:57:01.123Z,40.15
2019-03-26T11:59:31.746Z,40.41
2019-03-26T12:02:02.429Z,40.60
2019-03-26T12:04:33.100Z,41.97
2019-03-26T12:07:05.247Z,40.73
2019-03-26T12:09:46.195Z,39.71
2019-03-26T12:12:09.227Z,39.70
2019-03-26T12:14:40.115Z,41.48
2019-03-26T12:17:10.741Z,39.17
2019-03-26T12:19:41.365Z,37.97
2019-03-26T12:22:11.931Z,35.01
2019-03-26T12:24:42.835Z,34.95
2019-03-26T12:27:13.679Z,38.26
2019-03-26T12:29:44.551Z,35.30
2019-03-26T12:32:15.472Z,25.02
2019-03-26T12:34:46.104Z,26.11
2019-03-26T12:37:16.704Z,27.13
2019-03-26T12:39:58.886Z,25.34
2019-03-26T12:42:20.425Z,25.34
2019-03-26T12:44:51.076Z,24.21
2019-03-26T12:47:21.705Z,28.10
2019-03-26T12:49:52.327Z,24.09
2019-03-26T12:52:22.957Z,23.12
2019-03-26T12:54:53.593Z,22.74
2019-03-26T12:57:24.187Z,23.37
2019-03-26T12:59:54.975Z,22.17
2019-03-26T13:02:25.594Z,21.45
2019-03-26T13:04:56.209Z,22.70
2019-03-26T13:07:27.165Z,25.17
2019-03-26T13:09:57.779Z,29.04
2019-03-26T13:12:28.671Z,31.94
2019-03-26T13:14:59.618Z,34.27
2019-03-26T13:17:30.566Z,35.68
2019-03-26T13:20:01.467Z,34.60
2019-03-26T13:22:32.079Z,35.91
2019-03-26T13:25:02.716Z,36.47
2019-03-26T13:27:34.090Z,35.09
2019-03-26T13:30:05.313Z,34.90
2019-03-26T13:32:36.448Z,35.00
2019-03-26T13:35:07.070Z,35.97
2019-03-26T13:37:38.242Z,37.94
2019-03-26T13:40:09.409Z,36.25
2019-03-26T13:42:40.022Z,31.98
2019-03-26T13:45:10.908Z,34.82
2019-03-26T13:47:41.535Z,35.08
2019-03-26T13:50:12.696Z,36.43
2019-03-26T13:52:43.285Z,36.67
2019-03-26T13:55:13.951Z,37.31
2019-03-26T13:57:44.615Z,40.13
2019-03-26T14:00:15.859Z,38.84
2019-03-26T14:02:46.736Z,40.09
2019-03-26T14:05:35.353Z,37.24
2019-03-26T14:08:06.380Z,37.40
2019-03-26T14:10:41.326Z,38.97
2019-03-26T14:13:10.630Z,39.23
2019-03-26T14:15:41.323Z,39.71
2019-03-26T14:18:11.962Z,41.19
2019-03-26T14:20:42.663Z,40.58
2019-03-26T14:23:13.265Z,40.74
2019-03-26T14:25:47.830Z,41.60
2019-03-26T14:28:18.482Z,41.26
2019-03-26T14:30:49.174Z,41.96
2019-03-26T14:33:19.868Z,41.46
2019-03-26T14:35:50.499Z,41.42
2019-03-26T14:38:21.067Z,42.59
2019-03-26T14:40:55.172Z,40.12
2019-03-26T14:43:24.048Z,41.20
2019-03-26T14:45:54.939Z,41.84
2019-03-26T14:48:25.529Z,42.23
2019-03-26T14:50:56.261Z,44.01
2019-03-26T14:53:26.855Z,43.71
2019-03-26T14:55:57.488Z,44.14
2019-03-26T14:58:28.665Z,44.77
2019-03-26T15:00:59.930Z,44.44
2019-03-26T15:03:31.839Z,44.29
2019-03-26T15:06:04.618Z,44.95
2019-03-26T15:08:34.742Z,44.26
2019-03-26T15:11:08.308Z,44.93
2019-03-26T15:13:37.642Z,46.20
2019-03-26T15:16:08.390Z,46.64
2019-03-26T15:18:38.969Z,46.06
2019-03-26T15:21:09.585Z,46.82
2019-03-26T15:23:40.183Z,47.56
2019-03-26T15:26:10.790Z,47.30
2019-03-26T15:28:41.482Z,47.47
2019-03-26T15:31:12.704Z,47.58
2019-03-26T15:33:43.600Z,48.42
2019-03-26T15:36:14.249Z,48.47
2019-03-26T15:38:44.858Z,48.28
2019-03-26T15:41:24.007Z,47.44
2019-03-26T15:43:54.602Z,46.77
2019-03-26T15:46:25.558Z,47.22
2019-03-26T15:48:56.151Z,48.72
2019-03-26T15:51:26.999Z,50.95
2019-03-26T15:53:57.922Z,50.28
2019-03-26T15:56:28.642Z,50.02
2019-03-26T15:58:59.237Z,51.69
2019-03-26T16:01:30.359Z,51.82
2019-03-26T16:04:00.947Z,52.61
2019-03-26T16:06:31.970Z,52.32
2019-03-26T16:09:02.600Z,50.96
2019-03-26T16:11:36.269Z,52.54
2019-03-26T16:14:07.035Z,50.98
2019-03-26T16:16:37.677Z,52.05
2019-03-26T16:19:08.308Z,54.14
2019-03-26T16:21:39.129Z,54.42
2019-03-26T16:24:10.033Z,54.10
2019-03-26T16:26:41.086Z,53.60
2019-03-26T16:29:11.747Z,54.60
2019-03-26T16:31:42.599Z,54.25
2019-03-26T16:34:13.497Z,54.32
2019-03-26T16:36:44.104Z,54.80
2019-03-26T16:39:14.701Z,55.22
2019-03-26T16:41:49.354Z,54.97
2019-03-26T16:44:17.689Z,55.16
2019-03-26T16:46:49.299Z,54.67
2019-03-26T16:49:19.897Z,56.53
2019-03-26T16:51:50.532Z,55.47
2019-03-26T16:54:21.123Z,54.72
2019-03-26T16:56:51.984Z,55.07
2019-03-26T16:59:22.585Z,55.59
2019-03-26T17:01:53.234Z,57.22
2019-03-26T17:04:23.820Z,56.48
2019-03-26T17:06:55.704Z,57.22
2019-03-26T17:09:26.292Z,59.35
2019-03-26T17:12:03.057Z,58.14
2019-03-26T17:14:29.475Z,57.93
2019-03-26T17:17:01.091Z,58.75
2019-03-26T17:19:32.677Z,58.98
2019-03-26T17:22:03.334Z,58.78
2019-03-26T17:24:33.917Z,57.54
2019-03-26T17:27:04.767Z,59.12
2019-03-26T17:29:35.421Z,59.50
2019-03-26T17:32:06.087Z,59.32
2019-03-26T17:34:36.686Z,58.89
2019-03-26T17:37:07.306Z,59.68
2019-03-26T17:39:38.472Z,59.10
2019-03-26T17:42:17.019Z,60.29
2019-03-26T17:44:41.759Z,62.00
2019-03-26T17:47:12.386Z,60.90
2019-03-26T17:49:42.990Z,61.18
2019-03-26T17:52:13.606Z,61.69
2019-03-26T17:54:44.460Z,60.40
2019-03-26T17:57:16.003Z,61.11
2019-03-26T17:59:46.596Z,61.99
2019-03-26T18:02:17.231Z,61.48
2019-03-26T18:04:47.819Z,60.77
2019-03-26T18:07:18.424Z,60.13
2019-03-26T18:09:49.255Z,64.01
2019-03-26T18:12:30.208Z,61.23
2019-03-26T18:14:53.135Z,61.46
2019-03-26T18:17:23.987Z,61.26
2019-03-26T18:19:54.822Z,64.00
2019-03-26T18:22:25.411Z,64.89
2019-03-26T18:24:56.060Z,63.83
2019-03-26T18:27:26.698Z,65.63
2019-03-26T18:29:57.386Z,64.61
2019-03-26T18:32:28.122Z,64.45
2019-03-26T18:34:59.361Z,64.58
2019-03-26T18:37:30.402Z,65.40
2019-03-26T18:40:01.165Z,65.45
2019-03-26T18:42:43.289Z,65.75
2019-03-26T18:45:05.705Z,66.89
2019-03-26T18:47:36.705Z,67.84
2019-03-26T18:50:08.559Z,68.10
2019-03-26T18:52:39.259Z,70.40
2019-03-26T18:55:10.229Z,69.21
2019-03-26T18:57:40.837Z,69.33
2019-03-26T19:00:12.120Z,68.06
2019-03-26T19:02:44.434Z,71.12
2019-03-26T19:05:15.498Z,68.81
2019-03-26T19:07:46.116Z,69.07
2019-03-26T19:10:27.520Z,71.61
2019-03-26T19:12:58.182Z,72.24
2019-03-26T19:15:28.766Z,73.15
2019-03-26T19:17:59.392Z,73.75
2019-03-26T19:20:30.727Z,78.21
2019-03-26T19:23:01.380Z,77.23
2019-03-26T19:25:32.083Z,77.46
2019-03-26T19:28:02.741Z,78.07
2019-03-26T19:30:33.321Z,76.12
2019-03-26T19:33:04.232Z,75.97
2019-03-26T19:35:34.819Z,77.90
2019-03-26T19:38:05.518Z,78.60
2019-03-26T19:40:36.122Z,78.59
2019-03-26T19:43:11.168Z,78.50
2019-03-26T19:45:39.637Z,78.02
2019-03-26T19:48:10.512Z,77.15
2019-03-26T19:50:41.108Z,77.34
2019-03-26T19:53:11.748Z,75.97
2019-03-26T19:55:42.752Z,77.31
2019-03-26T19:58:13.671Z,76.41
2019-03-26T20:00:44.552Z,75.54
2019-03-26T20:03:15.206Z,75.54
2019-03-26T20:05:46.059Z,75.41
2019-03-26T20:08:16.673Z,77.35
2019-03-26T20:10:47.502Z,78.40
2019-03-26T20:13:24.168Z,76.60
2019-03-26T20:15:50.396Z,76.02
2019-03-26T20:18:21.277Z,78.14
2019-03-26T20:20:51.867Z,76.98
2019-03-26T20:23:22.497Z,79.50
2019-03-26T20:25:53.368Z,78.72
2019-03-26T20:28:26.723Z,79.65
2019-03-26T20:30:56.662Z,80.82
2019-03-26T20:33:27.737Z,80.76
2019-03-26T20:35:58.335Z,78.66
2019-03-26T20:38:29.036Z,78.57
2019-03-26T20:40:59.738Z,78.16
2019-03-26T20:43:37.172Z,80.49
2019-03-26T20:46:02.808Z,79.39
2019-03-26T20:48:33.427Z,79.91
2019-03-26T20:51:04.014Z,78.42
2019-03-26T20:53:34.624Z,78.29
2019-03-26T20:56:05.471Z,76.69
2019-03-26T20:58:36.180Z,77.06
2019-03-26T21:01:06.843Z,78.67
2019-03-26T21:03:37.794Z,79.70
2019-03-26T21:06:08.390Z,79.42
2019-03-26T21:08:39.090Z,76.89
2019-03-26T21:11:09.981Z,77.94
2019-03-26T21:13:50.314Z,76.75
2019-03-26T21:16:13.199Z,76.30
2019-03-26T21:18:44.911Z,76.26
2019-03-26T21:21:15.518Z,76.44
2019-03-26T21:23:46.173Z,76.73
2019-03-26T21:26:18.078Z,77.76
2019-03-26T21:28:49.779Z,79.56
2019-03-26T21:31:20.385Z,79.10
2019-03-26T21:33:51.023Z,76.27
2019-03-26T21:36:21.998Z,78.42
2019-03-26T21:38:52.642Z,78.83
2019-03-26T21:41:23.289Z,78.61
2019-03-26T21:44:04.118Z,80.31
2019-03-26T21:46:27.438Z,80.40
2019-03-26T21:48:58.422Z,78.84
2019-03-26T21:51:29.327Z,79.00
2019-03-26T21:53:59.964Z,76.37
2019-03-26T21:56:30.821Z,77.91
2019-03-26T21:59:01.707Z,77.10
2019-03-26T22:01:32.294Z,78.17
2019-03-26T22:04:02.933Z,79.61
2019-03-26T22:06:33.518Z,79.00
2019-03-26T22:09:05.218Z,77.74
2019-03-26T22:11:49.103Z,78.94
2019-03-26T22:14:17.833Z,78.47
2019-03-26T22:16:41.906Z,77.90
2019-03-26T22:19:12.574Z,77.15
2019-03-26T22:21:43.442Z,77.38
2019-03-26T22:24:17.000Z,76.82
2019-03-26T22:26:46.383Z,76.96
2019-03-26T22:29:17.352Z,76.85
2019-03-26T22:31:48.178Z,77.96
2019-03-26T22:34:19.082Z,77.64
2019-03-26T22:36:50.637Z,76.65
2019-03-26T22:39:21.273Z,79.70
2019-03-26T22:41:52.110Z,80.01
2019-03-26T22:44:31.387Z,78.56
2019-03-26T22:46:55.372Z,80.07
2019-03-26T22:49:26.019Z,80.58
2019-03-26T22:51:56.942Z,79.44
2019-03-26T22:54:27.830Z,79.61
2019-03-26T22:56:58.398Z,77.08
2019-03-26T22:59:29.034Z,77.32
2019-03-26T23:01:59.638Z,76.22
2019-03-26T23:04:30.270Z,75.70
2019-03-26T23:07:00.921Z,74.84
2019-03-26T23:09:31.607Z,74.93
2019-03-26T23:12:02.205Z,78.55
2019-03-26T23:14:44.493Z,77.97
2019-03-26T23:17:05.366Z,77.60
2019-03-26T23:19:35.967Z,78.33
2019-03-26T23:22:06.815Z,78.67
2019-03-26T23:24:37.488Z,77.61
2019-03-26T23:27:08.102Z,76.85
2019-03-26T23:29:38.866Z,79.54
2019-03-26T23:32:10.214Z,78.21
2019-03-26T23:34:40.922Z,77.35
2019-03-26T23:37:11.749Z,81.47
2019-03-26T23:39:42.358Z,79.07
2019-03-26T23:42:13.197Z,78.88
2019-03-26T23:44:43.805Z,80.46
2019-03-26T23:47:14.466Z,79.93
2019-03-26T23:49:45.092Z,80.17
2019-03-26T23:52:15.805Z,80.37
2019-03-26T23:54:46.443Z,78.54
2019-03-26T23:57:17.294Z,78.32
2019-03-26T23:59:49.167Z,80.38
